createdAt,value
2019-06-26T00:01:35.116Z,101553.10
2019-06-26T00:04:06.963Z,101548.09
2019-06-26T00:06:40.130Z,101539.80
2019-06-26T00:09:12.116Z,101537.95
2019-06-26T00:11:44.269Z,101540.55
2019-06-26T00:14:18.289Z,101539.45
2019-06-26T00:16:51.759Z,101538.34
2019-06-26T00:19:23.398Z,101541.20
2019-06-26T00:21:55.890Z,101529.41
2019-06-26T00:24:27.465Z,101528.56
2019-06-26T00:26:59.037Z,101521.16
2019-06-26T00:29:31.129Z,101533.84
2019-06-26T00:32:02.734Z,101529.23
2019-06-26T00:34:34.237Z,101534.35
2019-06-26T00:37:05.900Z,101537.95
2019-06-26T00:39:38.870Z,101531.98
2019-06-26T00:42:10.438Z,101530.66
2019-06-26T00:44:41.997Z,101533.45
2019-06-26T00:47:14.420Z,101527.23
2019-06-26T00:49:45.943Z,101534.54
2019-06-26T00:52:17.985Z,101530.44
2019-06-26T00:54:49.588Z,101532.02
2019-06-26T00:57:24.645Z,101538.80
2019-06-26T00:59:56.480Z,101529.97
2019-06-26T01:02:28.188Z,101526.69
2019-06-26T01:05:01.545Z,101523.66
2019-06-26T01:07:35.087Z,101521.72
2019-06-26T01:10:07.933Z,101528.19
2019-06-26T01:12:40.144Z,101519.42
2019-06-26T01:15:13.330Z,101514.84
2019-06-26T01:17:44.994Z,101523.06
2019-06-26T01:20:17.040Z,101520.25
2019-06-26T01:22:48.563Z,101524.50
2019-06-26T01:25:20.166Z,101522.34
2019-06-26T01:27:52.733Z,101518.64
2019-06-26T01:30:24.449Z,101517.66
2019-06-26T01:32:55.940Z,101519.52
2019-06-26T01:35:29.530Z,101516.48
2019-06-26T01:38:01.030Z,101513.02
2019-06-26T01:43:20.498Z,101516.62
2019-06-26T01:45:52.100Z,101519.74
2019-06-26T01:48:23.709Z,101521.63
2019-06-26T01:51:04.651Z,101516.62
2019-06-26T01:53:36.207Z,101522.02
2019-06-26T01:56:07.875Z,101526.61
2019-06-26T01:58:39.496Z,101526.84
2019-06-26T02:01:11.333Z,101527.84
2019-06-26T02:03:42.935Z,101520.34
2019-06-26T02:06:16.944Z,101524.38
2019-06-26T02:08:48.427Z,101525.02
2019-06-26T02:11:19.937Z,101525.98
2019-06-26T02:13:51.506Z,101525.09
2019-06-26T02:16:23.002Z,101526.24
2019-06-26T02:18:58.556Z,101531.72
2019-06-26T02:21:31.010Z,101528.30
2019-06-26T02:24:02.461Z,101527.97
2019-06-26T02:26:34.075Z,101526.31
2019-06-26T02:29:05.873Z,101526.98
2019-06-26T02:31:37.613Z,101530.02
2019-06-26T02:34:09.142Z,101532.42
2019-06-26T02:36:40.784Z,101527.00
2019-06-26T02:39:12.229Z,101530.49
2019-06-26T02:41:43.745Z,101518.94
2019-06-26T02:44:15.481Z,101530.03
2019-06-26T02:46:47.111Z,101522.49
2019-06-26T02:49:18.795Z,101523.73
2019-06-26T02:51:50.365Z,101522.20
2019-06-26T02:54:24.615Z,101522.66
2019-06-26T02:56:56.295Z,101525.01
2019-06-26T02:59:28.965Z,101524.03
2019-06-26T03:02:00.501Z,101521.97
2019-06-26T03:04:32.101Z,101525.77
2019-06-26T03:07:03.656Z,101527.84
2019-06-26T03:09:35.282Z,101522.89
2019-06-26T03:12:07.426Z,101519.06
2019-06-26T03:14:39.055Z,101521.73
2019-06-26T03:17:10.963Z,101519.85
2019-06-26T03:19:42.924Z,101523.70
2019-06-26T03:22:15.616Z,101522.98
2019-06-26T03:24:47.680Z,101524.31
2019-06-26T03:27:20.663Z,101525.01
2019-06-26T03:29:52.213Z,101525.27
2019-06-26T03:32:23.664Z,101517.34
2019-06-26T03:34:55.277Z,101524.72
2019-06-26T03:37:26.965Z,101524.65
2019-06-26T03:39:58.676Z,101525.39
2019-06-26T03:42:30.220Z,101516.58
2019-06-26T03:45:03.117Z,101521.72
2019-06-26T03:47:35.909Z,101518.68
2019-06-26T03:50:07.824Z,101521.83
2019-06-26T03:52:39.865Z,101519.53
2019-06-26T03:55:12.263Z,101524.77
2019-06-26T03:57:43.763Z,101525.69
2019-06-26T04:00:17.953Z,101523.09
2019-06-26T04:02:57.481Z,101521.16
2019-06-26T04:05:35.114Z,101516.16
2019-06-26T04:08:07.943Z,101518.98
2019-06-26T04:10:43.228Z,101518.98
2019-06-26T04:13:26.196Z,101517.53
2019-06-26T04:15:58.893Z,101522.23
2019-06-26T04:18:30.448Z,101514.87
2019-06-26T04:21:02.126Z,101519.35
2019-06-26T04:23:34.112Z,101519.84
2019-06-26T04:26:05.908Z,101523.17
2019-06-26T04:28:42.338Z,101525.19
2019-06-26T04:31:14.144Z,101520.90
2019-06-26T04:34:05.333Z,101513.34
2019-06-26T04:36:37.018Z,101529.80
2019-06-26T04:39:09.136Z,101526.31
2019-06-26T04:41:41.378Z,101524.24
2019-06-26T04:44:13.803Z,101523.39
2019-06-26T04:46:45.371Z,101520.94
2019-06-26T04:49:18.413Z,101510.05
2019-06-26T04:51:49.989Z,101510.45
2019-06-26T04:54:22.301Z,101507.25
2019-06-26T04:56:54.898Z,101512.66
2019-06-26T04:59:26.589Z,101507.91
2019-06-26T05:01:58.913Z,101509.62
2019-06-26T05:04:30.582Z,101504.69
2019-06-26T05:07:03.285Z,101502.75
2019-06-26T05:09:34.892Z,101497.48
2019-06-26T05:12:07.141Z,101499.00
2019-06-26T05:14:39.573Z,101501.63
2019-06-26T05:17:11.194Z,101496.20
2019-06-26T05:19:42.693Z,101503.73
2019-06-26T05:22:14.637Z,101505.75
2019-06-26T05:24:47.602Z,101504.28
2019-06-26T05:27:19.817Z,101498.55
2019-06-26T05:29:54.382Z,101504.19
2019-06-26T05:32:25.231Z,101508.52
2019-06-26T05:34:58.053Z,101498.77
2019-06-26T05:37:29.669Z,101499.00
2019-06-26T05:40:01.450Z,101502.60
2019-06-26T05:45:17.147Z,101500.53
2019-06-26T05:47:51.631Z,101509.83
2019-06-26T05:50:23.666Z,101510.25
2019-06-26T05:52:55.541Z,101510.78
2019-06-26T05:55:28.983Z,101515.89
2019-06-26T05:58:02.673Z,101515.80
2019-06-26T06:00:36.780Z,101520.61
2019-06-26T06:03:08.827Z,101519.73
2019-06-26T06:05:47.440Z,101527.53
2019-06-26T06:08:19.810Z,101528.52
2019-06-26T06:10:58.170Z,101536.22
2019-06-26T06:13:29.681Z,101541.49
2019-06-26T06:16:06.268Z,101540.77
2019-06-26T06:18:39.312Z,101551.36
2019-06-26T06:21:14.497Z,101551.25
2019-06-26T06:23:47.321Z,101553.64
2019-06-26T06:26:20.348Z,101547.09
2019-06-26T06:29:01.033Z,101553.21
2019-06-26T06:32:02.147Z,101554.44
2019-06-26T06:34:34.165Z,101556.40
2019-06-26T06:37:07.789Z,101559.18
2019-06-26T06:39:40.790Z,101566.02
2019-06-26T06:42:22.104Z,101563.00
2019-06-26T06:44:55.148Z,101569.59
2019-06-26T06:47:26.916Z,101564.42
2019-06-26T06:49:58.665Z,101571.98
2019-06-26T06:52:30.927Z,101568.06
2019-06-26T06:55:02.751Z,101567.45
2019-06-26T06:57:34.596Z,101561.05
2019-06-26T07:00:09.648Z,101561.98
2019-06-26T07:02:42.568Z,101571.32
2019-06-26T07:05:16.097Z,101566.48
2019-06-26T07:07:47.728Z,101571.75
2019-06-26T07:10:27.678Z,101574.69
2019-06-26T07:12:59.532Z,101574.68
2019-06-26T07:21:51.109Z,101581.48
2019-06-26T07:24:25.878Z,101583.19
2019-06-26T07:27:18.677Z,101575.70
2019-06-26T07:29:51.369Z,101582.19
2019-06-26T07:32:28.774Z,101574.48
2019-06-26T07:35:00.705Z,101580.35
2019-06-26T07:37:33.591Z,101577.95
2019-06-26T07:40:06.588Z,101573.44
2019-06-26T07:42:38.134Z,101579.50
2019-06-26T07:45:12.246Z,101575.53
2019-06-26T07:47:46.275Z,101580.03
2019-06-26T07:50:18.682Z,101587.80
2019-06-26T07:52:51.489Z,101585.00
2019-06-26T07:58:17.887Z,101599.65
2019-06-26T08:00:51.608Z,101601.25
2019-06-26T08:03:25.121Z,101597.81
2019-06-26T08:05:56.834Z,101595.92
2019-06-26T08:08:29.179Z,101597.46
2019-06-26T08:11:06.056Z,101601.96
2019-06-26T08:13:43.075Z,101598.66
2019-06-26T08:16:15.080Z,101598.14
2019-06-26T08:18:47.220Z,101600.72
2019-06-26T08:21:18.831Z,101602.80
2019-06-26T08:23:50.662Z,101604.55
2019-06-26T08:26:22.885Z,101604.22
2019-06-26T08:28:54.571Z,101609.77
2019-06-26T08:31:26.218Z,101619.94
2019-06-26T08:34:02.636Z,101613.54
2019-06-26T08:36:34.312Z,101609.72
2019-06-26T08:39:07.526Z,101611.11
2019-06-26T08:41:39.588Z,101606.97
2019-06-26T08:44:11.736Z,101619.93
2019-06-26T08:46:45.309Z,101621.30
2019-06-26T08:49:25.511Z,101624.42
2019-06-26T08:51:51.511Z,101621.86
2019-06-26T08:54:23.957Z,101628.75
2019-06-26T08:56:57.258Z,101635.30
2019-06-26T08:59:31.876Z,101634.55
2019-06-26T09:02:06.895Z,101640.81
2019-06-26T09:04:40.639Z,101643.91
2019-06-26T09:07:12.634Z,101640.48
2019-06-26T09:09:44.862Z,101639.92
2019-06-26T09:12:17.097Z,101639.09
2019-06-26T09:14:49.549Z,101644.80
2019-06-26T09:17:25.768Z,101648.11
2019-06-26T09:20:06.779Z,101646.67
2019-06-26T09:22:39.616Z,101652.75
2019-06-26T09:25:22.136Z,101654.27
2019-06-26T09:27:52.955Z,101654.78
2019-06-26T09:30:26.907Z,101656.27
2019-06-26T09:32:58.859Z,101676.09
2019-06-26T09:35:30.856Z,101673.98
2019-06-26T09:38:02.733Z,101665.20
2019-06-26T09:40:35.065Z,101679.54
2019-06-26T09:43:06.899Z,101677.30
2019-06-26T09:45:41.310Z,101691.06
2019-06-26T09:48:23.559Z,101690.56
2019-06-26T09:54:19.990Z,101677.48
2019-06-26T09:56:52.050Z,101704.39
2019-06-26T09:59:23.975Z,101703.30
2019-06-26T10:01:57.127Z,101701.84
2019-06-26T10:04:30.312Z,101700.63
2019-06-26T10:07:05.939Z,101707.54
2019-06-26T10:09:38.324Z,101706.16
2019-06-26T10:12:15.795Z,101708.22
2019-06-26T10:14:48.943Z,101712.20
2019-06-26T10:17:21.024Z,101711.67
2019-06-26T10:19:54.118Z,101723.47
2019-06-26T10:22:27.129Z,101733.98
2019-06-26T10:25:03.749Z,101737.36
2019-06-26T10:27:40.046Z,101741.69
2019-06-26T10:30:12.968Z,101745.47
2019-06-26T10:32:47.618Z,101749.52
2019-06-26T10:35:35.132Z,101749.38
2019-06-26T10:38:09.500Z,101754.98
2019-06-26T10:40:47.660Z,101764.39
2019-06-26T10:43:19.781Z,101771.52
2019-06-26T10:45:51.582Z,101765.44
2019-06-26T10:48:26.128Z,101761.83
2019-06-26T10:50:59.119Z,101757.56
2019-06-26T10:53:32.250Z,101762.89
2019-06-26T10:56:08.323Z,101765.42
2019-06-26T10:58:41.968Z,101765.08
2019-06-26T11:01:14.015Z,101785.52
2019-06-26T11:03:47.379Z,101784.13
2019-06-26T11:06:19.681Z,101770.17
2019-06-26T11:08:51.500Z,101778.47
2019-06-26T11:11:24.468Z,101775.24
2019-06-26T11:14:06.076Z,101772.55
2019-06-26T11:16:38.550Z,101776.25
2019-06-26T11:19:10.692Z,101772.38
2019-06-26T11:21:42.253Z,101785.67
2019-06-26T11:24:14.435Z,101782.46
2019-06-26T11:26:46.162Z,101786.27
2019-06-26T11:29:19.745Z,101792.30
2019-06-26T11:31:51.856Z,101803.04
2019-06-26T11:34:25.406Z,101786.95
2019-06-26T11:37:03.759Z,101793.69
2019-06-26T11:39:33.062Z,101793.86
2019-06-26T11:42:06.221Z,101796.89
2019-06-26T11:44:38.024Z,101799.69
2019-06-26T11:47:10.960Z,101799.70
2019-06-26T11:49:59.105Z,101801.75
2019-06-26T11:52:22.949Z,101800.55
2019-06-26T11:55:02.519Z,101804.36
2019-06-26T11:57:37.213Z,101801.00
2019-06-26T12:00:14.012Z,101798.77
2019-06-26T12:02:45.968Z,101802.23
2019-06-26T12:05:19.241Z,101813.75
2019-06-26T12:07:50.979Z,101815.73
2019-06-26T12:10:23.225Z,101815.66
2019-06-26T12:13:16.622Z,101812.00
2019-06-26T12:15:49.027Z,101812.17
2019-06-26T12:18:21.332Z,101816.44
2019-06-26T12:20:55.415Z,101815.88
2019-06-26T12:23:31.013Z,101823.57
2019-06-26T12:26:05.356Z,101827.53
2019-06-26T12:28:36.926Z,101832.34
2019-06-26T12:31:10.046Z,101829.52
2019-06-26T12:33:44.115Z,101835.95
2019-06-26T12:36:15.849Z,101835.42
2019-06-26T12:38:47.677Z,101837.53
2019-06-26T12:41:19.715Z,101836.74
2019-06-26T12:43:57.504Z,101835.77
2019-06-26T12:46:38.522Z,101835.33
2019-06-26T12:49:19.109Z,101849.02
2019-06-26T12:51:52.860Z,101845.69
2019-06-26T12:54:25.087Z,101847.67
2019-06-26T12:56:58.675Z,101859.57
2019-06-26T12:59:55.864Z,101856.20
2019-06-26T13:02:18.919Z,101863.27
2019-06-26T13:04:53.912Z,101861.06
2019-06-26T13:07:26.591Z,101869.08
2019-06-26T13:09:58.234Z,101863.32
2019-06-26T13:12:29.771Z,101863.41
2019-06-26T13:15:02.381Z,101854.91
2019-06-26T13:17:34.286Z,101860.16
2019-06-26T13:20:09.953Z,101858.17
2019-06-26T13:22:43.680Z,101858.06
2019-06-26T13:25:25.845Z,101868.20
2019-06-26T13:27:58.400Z,101868.42
2019-06-26T13:30:53.502Z,101861.45
2019-06-26T13:33:25.929Z,101863.55
2019-06-26T13:35:57.808Z,101861.44
2019-06-26T13:38:29.501Z,101877.37
2019-06-26T13:41:01.337Z,101886.71
2019-06-26T13:43:33.494Z,101878.27
2019-06-26T13:46:09.319Z,101881.43
2019-06-26T13:48:41.479Z,101885.51
2019-06-26T13:51:12.953Z,101883.88
2019-06-26T13:53:45.711Z,101882.19
2019-06-26T13:56:21.638Z,101876.20
2019-06-26T13:58:53.387Z,101891.13
2019-06-26T14:01:26.050Z,101891.97
2019-06-26T14:03:58.914Z,101892.81
2019-06-26T14:06:31.366Z,101904.36
2019-06-26T14:09:03.195Z,101899.50
2019-06-26T14:11:36.282Z,101903.95
2019-06-26T14:14:13.984Z,101907.05
2019-06-26T14:16:47.779Z,101901.98
2019-06-26T14:19:19.914Z,101898.33
2019-06-26T14:21:52.582Z,101894.28
2019-06-26T14:24:26.868Z,101892.75
2019-06-26T14:26:58.893Z,101898.64
2019-06-26T14:29:33.618Z,101909.36
2019-06-26T14:32:07.408Z,101902.28
2019-06-26T14:34:40.699Z,101912.20
2019-06-26T14:37:14.469Z,101915.59
2019-06-26T14:39:47.889Z,101923.86
2019-06-26T14:42:19.641Z,101925.31
2019-06-26T14:44:52.847Z,101926.23
2019-06-26T14:47:26.888Z,101925.29
2019-06-26T14:49:58.497Z,101932.41
2019-06-26T14:52:30.378Z,101928.92
2019-06-26T14:55:02.614Z,101927.33
2019-06-26T14:57:35.400Z,101924.02
2019-06-26T15:00:07.990Z,101923.84
2019-06-26T15:02:41.185Z,101925.52
2019-06-26T15:05:13.031Z,101939.84
2019-06-26T15:07:50.073Z,101940.37
2019-06-26T15:10:20.740Z,101932.97
2019-06-26T15:12:53.118Z,101936.30
2019-06-26T15:15:24.808Z,101943.02
2019-06-26T15:17:56.421Z,101943.77
2019-06-26T15:20:30.459Z,101943.53
2019-06-26T15:23:02.703Z,101953.23
2019-06-26T15:25:34.494Z,101939.34
2019-06-26T15:28:10.084Z,101937.36
2019-06-26T15:30:40.038Z,101945.84
2019-06-26T15:33:11.965Z,101946.35
2019-06-26T15:35:43.691Z,101939.89
2019-06-26T15:38:16.941Z,101945.34
2019-06-26T15:40:48.624Z,101950.41
2019-06-26T15:43:20.294Z,101955.37
2019-06-26T15:45:52.244Z,101952.17
2019-06-26T15:48:26.281Z,101970.33
2019-06-26T15:50:58.101Z,101967.74
2019-06-26T15:53:30.639Z,101975.34
2019-06-26T15:56:02.169Z,101982.96
2019-06-26T15:58:34.165Z,101988.27
2019-06-26T16:01:05.886Z,101990.80
2019-06-26T16:03:38.181Z,101988.34
2019-06-26T16:06:09.627Z,101990.56
2019-06-26T16:08:41.178Z,101994.64
2019-06-26T16:11:13.489Z,101991.94
2019-06-26T16:13:45.727Z,101996.73
2019-06-26T16:16:18.704Z,101990.16
2019-06-26T16:18:56.352Z,101988.43
2019-06-26T16:21:27.907Z,102002.21
2019-06-26T16:23:59.658Z,101998.70
2019-06-26T16:26:31.574Z,102004.63
2019-06-26T16:29:03.418Z,102014.16
2019-06-26T16:31:35.400Z,102014.31
2019-06-26T16:34:07.282Z,102009.58
2019-06-26T16:36:39.143Z,102014.56
2019-06-26T16:39:11.383Z,102020.44
2019-06-26T16:41:44.617Z,102009.01
2019-06-26T16:44:16.105Z,102022.64
2019-06-26T16:46:47.800Z,102013.80
2019-06-26T16:51:50.532Z,102010.90
2019-06-26T16:54:24.675Z,102017.05
2019-06-26T16:56:56.636Z,102012.82
2019-06-26T16:59:29.009Z,102024.19
2019-06-26T17:02:00.629Z,102014.16
2019-06-26T17:04:32.464Z,102013.32
2019-06-26T17:07:04.885Z,102019.73
2019-06-26T17:09:36.593Z,102020.25
2019-06-26T17:12:08.333Z,102027.14
2019-06-26T17:14:41.625Z,102028.75
2019-06-26T17:17:13.580Z,102046.26
2019-06-26T17:19:45.270Z,102040.56
2019-06-26T17:22:16.916Z,102042.31
2019-06-26T17:24:48.423Z,102052.66
2019-06-26T17:27:20.027Z,102042.62
2019-06-26T17:29:53.861Z,102057.91
2019-06-26T17:32:26.591Z,102046.71
2019-06-26T17:35:00.348Z,102049.31
2019-06-26T17:37:31.545Z,102050.91
2019-06-26T17:40:10.684Z,102061.82
2019-06-26T17:42:45.108Z,102058.11
2019-06-26T17:48:11.682Z,102070.09
2019-06-26T17:54:52.190Z,102070.42
2019-06-26T17:57:29.013Z,102061.64
2019-06-26T18:00:02.509Z,102071.31
2019-06-26T18:02:34.513Z,102069.17
2019-06-26T18:05:06.337Z,102083.97
2019-06-26T18:07:38.130Z,102083.34
2019-06-26T18:10:11.417Z,102083.66
2019-06-26T18:12:44.058Z,102071.32
2019-06-26T18:15:16.093Z,102075.02
2019-06-26T18:17:48.266Z,102082.91
2019-06-26T18:20:20.149Z,102089.31
2019-06-26T18:23:05.883Z,102080.67
2019-06-26T18:25:25.589Z,102083.07
2019-06-26T18:28:20.239Z,102091.50
2019-06-26T18:31:12.013Z,102090.65
2019-06-26T18:33:44.437Z,102093.39
2019-06-26T18:36:15.960Z,102084.83
2019-06-26T18:38:50.177Z,102096.59
2019-06-26T18:41:23.119Z,102103.16
2019-06-26T18:44:02.462Z,102096.22
2019-06-26T18:46:44.683Z,102100.17
2019-06-26T18:49:18.275Z,102100.47
2019-06-26T18:51:50.713Z,102105.30
2019-06-26T18:54:26.703Z,102112.46
2019-06-26T18:56:58.295Z,102111.01
2019-06-26T18:59:30.930Z,102123.09
2019-06-26T19:02:02.537Z,102119.36
2019-06-26T19:04:35.477Z,102115.58
2019-06-26T19:07:07.190Z,102120.42
2019-06-26T19:09:39.188Z,102132.09
2019-06-26T19:12:11.168Z,102129.94
2019-06-26T19:14:46.053Z,102134.26
2019-06-26T19:17:17.387Z,102148.91
2019-06-26T19:19:51.446Z,102141.00
2019-06-26T19:22:23.052Z,102137.41
2019-06-26T19:24:54.804Z,102134.48
2019-06-26T19:27:27.184Z,102140.98
2019-06-26T19:29:59.442Z,102147.23
2019-06-26T19:32:31.318Z,102146.94
2019-06-26T19:35:19.547Z,102151.95
2019-06-26T19:37:36.862Z,102158.95
2019-06-26T19:40:09.513Z,102156.09
2019-06-26T19:42:41.686Z,102163.94
2019-06-26T19:45:14.056Z,102159.13
2019-06-26T19:47:45.705Z,102153.39
2019-06-26T19:50:18.296Z,102155.61
2019-06-26T19:52:50.049Z,102175.75
2019-06-26T19:55:21.653Z,102165.14
2019-06-26T20:00:46.665Z,102176.92
2019-06-26T20:03:19.121Z,102171.14
2019-06-26T20:05:51.606Z,102175.73
2019-06-26T20:08:24.875Z,102180.27
2019-06-26T20:10:57.304Z,102172.48
2019-06-26T20:13:30.181Z,102170.55
2019-06-26T20:16:05.129Z,102177.14
2019-06-26T20:18:39.442Z,102169.42
2019-06-26T20:21:11.122Z,102174.08
2019-06-26T20:23:44.355Z,102172.31
2019-06-26T20:26:20.142Z,102168.61
2019-06-26T20:28:51.883Z,102169.33
2019-06-26T20:31:23.918Z,102178.11
2019-06-26T20:33:55.893Z,102184.17
2019-06-26T20:36:28.988Z,102185.59
2019-06-26T20:39:10.353Z,102193.09
2019-06-26T20:41:42.463Z,102191.62
2019-06-26T20:44:14.515Z,102193.66
2019-06-26T20:46:46.340Z,102191.27
2019-06-26T20:49:19.409Z,102194.53
2019-06-26T20:51:51.200Z,102195.31
2019-06-26T20:54:25.442Z,102199.48
2019-06-26T20:56:58.099Z,102200.61
2019-06-26T20:59:30.278Z,102214.23
2019-06-26T21:02:02.032Z,102225.46
2019-06-26T21:04:34.091Z,102220.53
2019-06-26T21:07:06.458Z,102224.84
2019-06-26T21:09:39.035Z,102234.08
2019-06-26T21:12:11.258Z,102232.73
2019-06-26T21:14:45.799Z,102232.97
2019-06-26T21:17:19.834Z,102232.94
2019-06-26T21:19:55.081Z,102233.73
2019-06-26T21:22:28.996Z,102236.03
2019-06-26T21:25:19.054Z,102239.65
2019-06-26T21:27:47.028Z,102246.09
2019-06-26T21:30:21.282Z,102244.53
2019-06-26T21:33:01.916Z,102253.27
2019-06-26T21:35:33.629Z,102249.83
2019-06-26T21:38:05.799Z,102246.91
2019-06-26T21:40:41.279Z,102243.09
2019-06-26T21:43:12.768Z,102251.13
2019-06-26T21:45:44.862Z,102255.45
2019-06-26T21:48:16.689Z,102256.67
2019-06-26T21:50:48.426Z,102250.70
2019-06-26T21:53:20.169Z,102255.02
2019-06-26T21:56:10.460Z,102254.82
2019-06-26T21:59:00.030Z,102252.73
2019-06-26T22:01:49.360Z,102255.70
2019-06-26T22:04:38.833Z,102257.77
2019-06-26T22:07:12.608Z,102259.41
2019-06-26T22:09:50.206Z,102255.84
2019-06-26T22:12:24.480Z,102253.84
2019-06-26T22:14:56.417Z,102263.56
2019-06-26T22:17:28.223Z,102264.43
2019-06-26T22:20:00.006Z,102262.79
2019-06-26T22:22:32.788Z,102266.94
2019-06-26T22:25:05.639Z,102259.52
2019-06-26T22:27:38.428Z,102274.34
2019-06-26T22:30:12.060Z,102280.38
2019-06-26T22:32:43.778Z,102273.87
2019-06-26T22:35:16.154Z,102276.02
2019-06-26T22:37:50.840Z,102274.11
2019-06-26T22:40:23.103Z,102276.29
2019-06-26T22:42:54.706Z,102276.09
2019-06-26T22:47:59.114Z,102266.65
2019-06-26T22:50:30.747Z,102273.17
2019-06-26T22:53:02.990Z,102273.73
2019-06-26T22:55:35.897Z,102269.53
2019-06-26T22:58:07.696Z,102282.27
2019-06-26T23:00:41.241Z,102281.73
2019-06-26T23:03:13.177Z,102282.07
2019-06-26T23:05:45.757Z,102280.12
2019-06-26T23:08:18.552Z,102285.64
2019-06-26T23:10:51.785Z,102278.55
2019-06-26T23:13:24.333Z,102283.05
2019-06-26T23:15:59.703Z,102275.38
2019-06-26T23:18:31.860Z,102278.28
2019-06-26T23:21:23.687Z,102276.92
2019-06-26T23:23:59.891Z,102275.57
2019-06-26T23:26:31.939Z,102284.58
2019-06-26T23:29:04.521Z,102277.21
2019-06-26T23:31:38.315Z,102282.95
2019-06-26T23:34:10.087Z,102280.14
2019-06-26T23:36:41.711Z,102278.33
2019-06-26T23:39:14.857Z,102287.24
2019-06-26T23:41:46.627Z,102295.48
2019-06-26T23:44:19.644Z,102291.30
2019-06-26T23:46:51.561Z,102288.88
2019-06-26T23:49:23.192Z,102294.41
2019-06-26T23:51:54.918Z,102298.81
2019-06-26T23:54:29.104Z,102293.97
2019-06-26T23:57:00.781Z,102295.56
